Time;durP1;ratioP1;P1;durP2;ratioP2;P2;SDS_P1;SDS_P2;PMS_P1;PMS_P2;Temp;Humidity;BMP_temperature;BMP_pressure;BME280_temperature;BME280_humidity;BME280_pressure;Samples;Min_cycle;Max_cycle;Signal;HPM_P1;HPM_P2
2022/12/11 00:01:54;;;;;;;20.47;8.70;;;-1.00;99.90;;;;;;4191626;28;20475;-75
2022/12/11 00:03:56;;;;;;;20.97;9.53;;;-1.00;99.90;;;;;;4191416;28;20974;-75
2022/12/11 00:05:58;;;;;;;19.67;9.00;;;-1.00;99.90;;;;;;4192907;28;20478;-75
2022/12/11 00:08:00;;;;;;;20.87;9.53;;;-1.00;99.90;;;;;;4190585;28;20492;-75
2022/12/11 00:10:03;;;;;;;21.93;9.73;;;-1.00;99.90;;;;;;4185352;28;20555;-75
2022/12/11 00:12:07;;;;;;;17.50;8.73;;;-1.00;99.90;;;;;;4190571;28;20532;-75
2022/12/11 00:14:09;;;;;;;22.33;10.00;;;-1.00;99.90;;;;;;4188531;28;20496;-75
2022/12/11 00:16:11;;;;;;;20.10;9.53;;;-1.00;99.90;;;;;;4193745;28;20510;-75
2022/12/11 00:18:14;;;;;;;22.80;9.77;;;-1.00;99.90;;;;;;4186660;28;20538;-75
2022/12/11 00:20:16;;;;;;;23.93;9.90;;;-1.00;99.90;;;;;;4188878;28;20519;-76
2022/12/11 00:22:17;;;;;;;22.83;10.07;;;-1.00;99.90;;;;;;4188141;28;20479;-75
2022/12/11 00:24:19;;;;;;;20.17;9.03;;;-1.00;99.90;;;;;;4191652;28;20567;-75
2022/12/11 00:26:21;;;;;;;18.90;8.40;;;-1.00;99.90;;;;;;4192272;28;20515;-76
2022/12/11 00:28:25;;;;;;;19.60;8.57;;;-1.00;99.90;;;;;;4186514;28;20445;-75
2022/12/11 00:30:27;;;;;;;21.63;9.13;;;-1.00;99.90;;;;;;4188386;28;20510;-75
2022/12/11 00:32:28;;;;;;;18.87;8.17;;;-1.00;99.90;;;;;;4189869;28;20479;-75
2022/12/11 00:34:30;;;;;;;19.07;8.33;;;-1.00;99.90;;;;;;4191426;28;20523;-75
2022/12/11 00:36:32;;;;;;;19.33;8.60;;;-1.00;99.90;;;;;;4192359;28;20821;-75
2022/12/11 00:38:34;;;;;;;16.83;8.10;;;-1.00;99.90;;;;;;4189295;28;21046;-76
2022/12/11 00:40:37;;;;;;;18.07;8.80;;;-1.00;99.90;;;;;;4197989;28;20450;-75
2022/12/11 00:42:39;;;;;;;17.33;8.30;;;-1.10;99.90;;;;;;4198456;28;20452;-75
2022/12/11 00:44:42;;;;;;;17.33;7.90;;;-1.10;99.90;;;;;;4193471;28;20462;-75
2022/12/11 00:46:44;;;;;;;16.77;7.87;;;-1.10;99.90;;;;;;4190224;28;20584;-75
2022/12/11 00:48:48;;;;;;;18.93;8.30;;;-1.10;99.90;;;;;;4192390;28;20911;-75
2022/12/11 00:50:50;;;;;;;15.80;7.77;;;-1.10;99.90;;;;;;4189930;28;20478;-75
2022/12/11 00:52:52;;;;;;;16.73;7.57;;;-1.10;99.90;;;;;;4196722;28;20497;-75
2022/12/11 00:54:54;;;;;;;17.80;8.30;;;-1.10;99.90;;;;;;4192189;28;20522;-76
2022/12/11 00:56:56;;;;;;;19.50;7.83;;;-1.10;99.90;;;;;;4189754;28;20498;-75
2022/12/11 00:58:58;;;;;;;17.43;7.90;;;-1.10;99.90;;;;;;4185844;28;20465;-75
2022/12/11 01:01:07;;;;;;;17.20;7.67;;;-1.10;99.90;;;;;;4195720;28;20444;-75
2022/12/11 01:03:10;;;;;;;17.50;8.17;;;-1.10;99.90;;;;;;4192284;28;20453;-75
2022/12/11 01:05:12;;;;;;;21.10;8.27;;;-0.90;99.90;;;;;;4195134;28;20480;-76
2022/12/11 01:07:14;;;;;;;16.30;7.80;;;-1.20;99.90;;;;;;4197025;28;20539;-75
2022/12/11 01:11:44;;;;;;;19.00;8.30;;;-1.20;99.90;;;;;;4168394;28;20500;-75
2022/12/11 01:13:45;;;;;;;18.40;7.57;;;-1.20;99.90;;;;;;4190583;28;20910;-75
2022/12/11 01:15:47;;;;;;;18.83;7.90;;;-1.20;99.90;;;;;;4190097;28;20492;-75
2022/12/11 01:17:51;;;;;;;20.17;8.30;;;-1.20;99.90;;;;;;4193605;28;20456;-75
2022/12/11 01:19:54;;;;;;;18.33;8.37;;;-1.20;99.90;;;;;;4192838;28;20453;-75
2022/12/11 01:21:55;;;;;;;19.57;8.27;;;-1.20;99.90;;;;;;4183516;28;21162;-75
2022/12/11 01:23:57;;;;;;;18.73;8.03;;;-1.20;99.90;;;;;;4185967;28;20536;-75
2022/12/11 01:26:05;;;;;;;16.40;7.67;;;-1.20;99.90;;;;;;4189996;28;20496;-75
2022/12/11 01:28:08;;;;;;;14.97;7.43;;;-1.30;99.90;;;;;;4188036;28;20933;-75
2022/12/11 01:30:11;;;;;;;16.37;7.57;;;-1.30;99.90;;;;;;4191711;28;20496;-75
2022/12/11 01:32:13;;;;;;;17.87;8.07;;;-1.30;99.90;;;;;;4192685;28;21003;-75
2022/12/11 01:34:16;;;;;;;15.40;7.27;;;-1.30;99.90;;;;;;4188183;28;20997;-75
2022/12/11 01:36:21;;;;;;;18.97;8.10;;;-1.30;99.90;;;;;;4189636;28;21013;-75
2022/12/11 01:38:23;;;;;;;17.50;7.73;;;-1.10;99.90;;;;;;4189135;28;20561;-74
2022/12/11 01:40:24;;;;;;;15.23;7.27;;;-1.30;99.90;;;;;;4189431;28;20451;-75
2022/12/11 01:42:28;;;;;;;14.27;7.00;;;-1.30;99.90;;;;;;4192687;28;20457;-75
2022/12/11 01:45:07;;;;;;;18.43;7.47;;;-1.30;99.90;;;;;;4192414;28;20469;-74
2022/12/11 01:47:10;;;;;;;17.77;7.33;;;-1.30;99.90;;;;;;4189731;28;20544;-75
2022/12/11 01:49:13;;;;;;;17.73;8.30;;;-1.30;99.90;;;;;;4194878;28;21210;-75
2022/12/11 01:51:17;;;;;;;16.70;7.20;;;-1.30;99.90;;;;;;4189415;28;20462;-75
2022/12/11 01:53:24;;;;;;;16.97;7.53;;;-1.30;99.90;;;;;;4193411;28;20483;-75
2022/12/11 01:55:27;;;;;;;17.27;7.70;;;-1.30;99.90;;;;;;4187233;28;20486;-75
2022/12/11 01:57:29;;;;;;;16.93;7.83;;;-1.20;99.90;;;;;;4187484;28;21095;-75
2022/12/11 01:59:35;;;;;;;17.47;7.93;;;-1.30;99.90;;;;;;4186913;28;20531;-75
2022/12/11 02:01:41;;;;;;;16.10;7.20;;;-1.30;99.90;;;;;;4186080;28;21212;-75
2022/12/11 02:03:43;;;;;;;17.27;7.90;;;-1.30;99.90;;;;;;4190171;28;20504;-75
2022/12/11 02:05:45;;;;;;;14.93;6.73;;;-1.30;99.90;;;;;;4190416;28;20568;-75
2022/12/11 02:07:51;;;;;;;14.73;7.17;;;-1.30;99.90;;;;;;4191337;28;20551;-75
2022/12/11 02:09:53;;;;;;;17.27;7.93;;;-1.30;99.90;;;;;;4190911;28;20510;-75
2022/12/11 02:12:02;;;;;;;16.50;7.40;;;-1.30;99.90;;;;;;4196212;28;20462;-75
2022/12/11 02:14:09;;;;;;;17.73;7.73;;;-1.30;99.90;;;;;;4193604;28;20953;-75
2022/12/11 02:16:19;;;;;;;20.40;7.93;;;-1.30;99.90;;;;;;4199999;28;20920;-76
2022/12/11 02:18:28;;;;;;;17.73;7.23;;;-1.30;99.90;;;;;;4191363;28;20997;-76
2022/12/11 02:20:36;;;;;;;18.60;7.70;;;-1.30;99.90;;;;;;4192070;28;20560;-75
2022/12/11 02:22:59;;;;;;;19.53;8.37;;;-1.30;99.90;;;;;;4186523;28;20911;-75
2022/12/11 02:25:11;;;;;;;17.50;8.07;;;-1.30;99.90;;;;;;4198085;28;20469;-76
2022/12/11 02:27:23;;;;;;;18.90;8.23;;;-1.30;99.90;;;;;;4203717;28;20772;-77
2022/12/11 02:29:34;;;;;;;16.13;7.60;;;-1.30;99.90;;;;;;4188831;28;20901;-76
2022/12/11 02:31:39;;;;;;;19.40;8.00;;;-1.30;99.90;;;;;;4195061;28;20543;-76
2022/12/11 02:33:46;;;;;;;18.27;7.87;;;-1.30;99.90;;;;;;4193569;28;20460;-76
2022/12/11 02:35:49;;;;;;;19.87;8.30;;;-1.30;99.90;;;;;;4192260;28;20507;-75
2022/12/11 02:37:56;;;;;;;19.73;8.87;;;-1.30;99.90;;;;;;4200272;28;20484;-77
2022/12/11 02:39:58;;;;;;;17.47;7.90;;;-1.30;99.90;;;;;;4191336;28;20457;-76
2022/12/11 02:42:00;;;;;;;19.20;8.53;;;-1.30;99.90;;;;;;4200761;28;20470;-75
2022/12/11 02:44:04;;;;;;;23.20;9.50;;;-1.40;99.90;;;;;;4197040;28;20962;-75
2022/12/11 02:46:08;;;;;;;19.43;9.57;;;-1.40;99.90;;;;;;4188429;28;20509;-76
2022/12/11 02:48:12;;;;;;;20.67;8.47;;;-1.30;99.90;;;;;;4195232;28;20543;-76
2022/12/11 02:50:18;;;;;;;23.00;9.13;;;-1.40;99.90;;;;;;4203119;28;20560;-76
2022/12/11 02:52:23;;;;;;;20.10;8.57;;;-1.40;99.90;;;;;;4185549;28;20488;-78
2022/12/11 02:54:28;;;;;;;20.23;9.27;;;-1.40;99.90;;;;;;4195065;28;20565;-75
2022/12/11 02:56:36;;;;;;;31.30;9.47;;;-1.40;99.90;;;;;;4206354;28;20530;-75
2022/12/11 02:58:43;;;;;;;17.77;8.60;;;-1.40;99.90;;;;;;4192973;28;20504;-76
2022/12/11 03:00:46;;;;;;;20.80;9.27;;;-1.50;99.90;;;;;;4196077;28;20452;-76
2022/12/11 03:02:50;;;;;;;18.93;8.10;;;-1.50;99.90;;;;;;4191172;28;20471;-76
2022/12/11 03:04:52;;;;;;;19.87;8.77;;;-1.10;99.90;;;;;;4195891;28;21278;-75
2022/12/11 03:07:00;;;;;;;18.30;8.77;;;-1.50;99.90;;;;;;4199257;28;20517;-76
2022/12/11 03:09:02;;;;;;;21.00;9.37;;;-1.50;99.90;;;;;;4193798;28;20453;-76
2022/12/11 03:11:04;;;;;;;20.20;8.73;;;-1.50;99.90;;;;;;4196766;28;20456;-75
2022/12/11 03:13:06;;;;;;;19.73;8.70;;;-1.50;99.90;;;;;;4191103;28;20453;-76
2022/12/11 03:15:11;;;;;;;20.33;9.37;;;-1.50;99.90;;;;;;4194715;28;21095;-75
2022/12/11 03:17:17;;;;;;;19.23;8.53;;;-1.50;99.90;;;;;;4197480;28;20450;-76
2022/12/11 03:19:28;;;;;;;20.90;9.30;;;-1.50;99.90;;;;;;4198464;28;20483;-75
2022/12/11 03:21:36;;;;;;;23.20;9.70;;;-1.50;99.90;;;;;;4195701;28;20863;-75
2022/12/11 03:23:44;;;;;;;21.30;9.07;;;-1.50;99.90;;;;;;4198169;28;20493;-76
2022/12/11 03:25:53;;;;;;;20.87;9.27;;;-1.50;99.90;;;;;;4194652;28;20464;-75
2022/12/11 03:27:59;;;;;;;19.53;9.33;;;-1.50;99.90;;;;;;4185165;28;20456;-77
2022/12/11 03:30:05;;;;;;;18.33;8.83;;;-1.60;99.90;;;;;;4188208;28;20540;-76
2022/12/11 03:32:12;;;;;;;18.37;9.37;;;-1.50;99.90;;;;;;4189103;28;20465;-76
2022/12/11 03:34:18;;;;;;;21.37;8.80;;;-1.60;99.90;;;;;;4201176;28;20460;-76
2022/12/11 03:36:25;;;;;;;20.80;9.33;;;-1.20;99.90;;;;;;4195163;28;20480;-75
2022/12/11 03:38:34;;;;;;;21.20;9.60;;;-1.60;99.90;;;;;;4196498;28;20455;-75
2022/12/11 03:40:39;;;;;;;19.63;9.30;;;-1.60;99.90;;;;;;4197959;28;20451;-75
2022/12/11 03:42:43;;;;;;;21.37;9.77;;;-1.60;99.90;;;;;;4201051;28;20451;-74
2022/12/11 03:44:49;;;;;;;20.00;9.80;;;-1.60;99.90;;;;;;4195758;28;20477;-74
2022/12/11 03:46:53;;;;;;;19.40;9.27;;;-1.60;99.90;;;;;;4191663;28;20505;-74
2022/12/11 03:48:59;;;;;;;22.07;9.53;;;-1.60;99.90;;;;;;4194712;28;20468;-74
2022/12/11 03:51:04;;;;;;;20.37;9.40;;;-1.70;99.90;;;;;;4194137;28;20448;-74
2022/12/11 03:53:08;;;;;;;19.60;9.53;;;-1.60;99.90;;;;;;4199054;28;20957;-75
2022/12/11 03:55:12;;;;;;;20.83;10.60;;;-1.70;99.90;;;;;;4190684;28;20530;-74
2022/12/11 03:57:18;;;;;;;18.63;9.03;;;-1.60;99.90;;;;;;4186950;28;21349;-74
2022/12/11 03:59:20;;;;;;;19.67;9.90;;;-1.70;99.90;;;;;;4187306;28;21454;-74
2022/12/11 04:01:22;;;;;;;20.57;9.93;;;-1.70;99.90;;;;;;4186311;28;20904;-74
2022/12/11 04:03:24;;;;;;;20.73;9.60;;;-1.70;99.90;;;;;;4192135;28;20501;-74
2022/12/11 04:05:26;;;;;;;21.10;10.00;;;-1.70;99.90;;;;;;4187514;28;20476;-74
2022/12/11 04:07:30;;;;;;;17.07;8.80;;;-1.70;99.90;;;;;;4189881;28;20949;-74
2022/12/11 04:09:33;;;;;;;18.70;9.77;;;-1.70;99.90;;;;;;4204729;28;20466;-74
2022/12/11 04:11:35;;;;;;;20.03;9.20;;;-1.70;99.90;;;;;;4194032;28;20444;-74
2022/12/11 04:13:38;;;;;;;16.13;8.37;;;-1.70;99.90;;;;;;4198787;28;20511;-74
2022/12/11 04:15:39;;;;;;;16.50;8.50;;;-1.70;99.90;;;;;;4194378;28;20493;-74
2022/12/11 04:24:44;;;;;;;19.80;9.33;;;-1.70;99.90;;;;;;4190295;28;20444;-74
2022/12/11 04:26:49;;;;;;;18.37;8.57;;;-1.70;99.90;;;;;;4195422;28;20477;-74
2022/12/11 04:28:51;;;;;;;20.87;9.50;;;-1.80;99.90;;;;;;4193163;28;20436;-74
2022/12/11 04:30:53;;;;;;;20.17;8.70;;;-1.70;99.90;;;;;;4195658;28;20448;-75
2022/12/11 04:32:55;;;;;;;20.07;9.43;;;-1.80;99.90;;;;;;4193936;28;20841;-74
2022/12/11 04:34:57;;;;;;;16.53;8.00;;;-1.80;99.90;;;;;;4197757;28;20530;-74
2022/12/11 04:36:58;;;;;;;18.20;8.67;;;-1.80;99.90;;;;;;4198016;28;20495;-74
2022/12/11 04:39:00;;;;;;;19.20;9.17;;;-1.80;99.90;;;;;;4183929;28;20456;-74
2022/12/11 04:41:06;;;;;;;18.30;9.10;;;-1.80;99.90;;;;;;4190861;28;20447;-74
2022/12/11 04:43:08;;;;;;;19.27;8.70;;;-1.80;99.90;;;;;;4191769;28;20868;-74
2022/12/11 04:45:11;;;;;;;18.57;9.27;;;-1.80;99.90;;;;;;4190734;28;20522;-74
2022/12/11 04:47:13;;;;;;;17.60;7.83;;;-1.80;99.90;;;;;;4188811;28;20481;-74
2022/12/11 04:49:15;;;;;;;20.77;9.37;;;-1.80;99.90;;;;;;4195279;28;20452;-73
2022/12/11 04:51:18;;;;;;;18.07;8.83;;;-1.80;99.90;;;;;;4191171;28;20833;-74
2022/12/11 04:53:20;;;;;;;15.03;7.97;;;-1.80;99.90;;;;;;4187714;28;20547;-74
2022/12/11 04:55:22;;;;;;;16.37;8.17;;;-1.00;99.90;;;;;;4186436;28;20861;-73
2022/12/11 04:57:26;;;;;;;16.23;8.13;;;-1.80;99.90;;;;;;4184872;28;20468;-74
2022/12/11 04:59:27;;;;;;;16.63;8.07;;;-1.90;99.90;;;;;;4195728;28;20539;-74
2022/12/11 05:01:29;;;;;;;17.07;7.93;;;-1.90;99.90;;;;;;4194235;28;21008;-75
2022/12/11 05:03:31;;;;;;;14.97;7.53;;;-1.90;99.90;;;;;;4189099;28;20456;-74
2022/12/11 05:05:33;;;;;;;16.33;8.30;;;-1.90;99.90;;;;;;4188822;28;20472;-73
2022/12/11 05:07:36;;;;;;;16.03;8.80;;;-1.90;99.90;;;;;;4204256;28;20895;-73
2022/12/11 05:09:38;;;;;;;15.80;8.00;;;-1.90;99.90;;;;;;4192735;28;20562;-74
2022/12/11 05:11:40;;;;;;;15.00;7.73;;;-1.90;99.90;;;;;;4192281;28;20534;-74
2022/12/11 05:13:44;;;;;;;14.50;7.77;;;-2.00;99.90;;;;;;4190923;28;20464;-74
2022/12/11 05:15:46;;;;;;;15.73;7.80;;;-2.00;99.90;;;;;;4189722;28;21065;-74
2022/12/11 05:17:48;;;;;;;15.60;8.07;;;-2.00;99.90;;;;;;4194786;28;20494;-74
2022/12/11 05:19:50;;;;;;;15.47;8.30;;;-2.00;99.90;;;;;;4195670;28;20495;-75
2022/12/11 05:21:52;;;;;;;16.80;8.27;;;-2.00;99.90;;;;;;4196146;28;20947;-74
2022/12/11 05:23:54;;;;;;;14.13;8.03;;;-2.00;99.90;;;;;;4190922;28;20572;-74
2022/12/11 05:25:57;;;;;;;15.67;7.50;;;-2.00;99.90;;;;;;4185292;28;20467;-75
2022/12/11 05:28:05;;;;;;;19.60;8.83;;;-2.00;99.90;;;;;;4188231;28;20985;-74
2022/12/11 05:30:10;;;;;;;18.47;7.87;;;-2.00;99.90;;;;;;4193303;28;20471;-74
2022/12/11 05:32:14;;;;;;;15.70;8.07;;;-2.00;99.90;;;;;;4189825;28;20458;-73
2022/12/11 05:34:16;;;;;;;13.90;7.77;;;-2.00;99.90;;;;;;4191361;28;20464;-74
2022/12/11 05:36:19;;;;;;;15.37;7.70;;;-2.00;99.90;;;;;;4191089;28;20908;-74
2022/12/11 05:38:22;;;;;;;16.63;8.23;;;-2.00;99.90;;;;;;4193845;28;20466;-74
2022/12/11 05:40:24;;;;;;;18.63;8.27;;;-2.00;99.90;;;;;;4189608;28;20522;-73
2022/12/11 05:42:26;;;;;;;15.60;7.33;;;-2.00;99.90;;;;;;4188698;28;20877;-74
2022/12/11 05:44:28;;;;;;;15.27;7.70;;;-2.00;99.90;;;;;;4190920;28;20464;-73
2022/12/11 05:46:31;;;;;;;15.73;7.70;;;-2.00;99.90;;;;;;4200970;28;20468;-74
2022/12/11 05:48:33;;;;;;;14.80;7.33;;;-2.00;99.90;;;;;;4192071;28;20459;-74
2022/12/11 05:50:35;;;;;;;15.07;7.57;;;-2.00;99.90;;;;;;4194597;28;20488;-76
2022/12/11 05:52:37;;;;;;;16.80;8.07;;;-2.10;99.90;;;;;;4188561;28;20460;-74
2022/12/11 05:54:39;;;;;;;14.77;7.17;;;-2.10;99.90;;;;;;4189313;28;20495;-75
2022/12/11 05:56:41;;;;;;;17.23;7.73;;;-2.10;99.90;;;;;;4189008;28;21006;-75
2022/12/11 05:58:44;;;;;;;17.33;8.10;;;-2.00;99.90;;;;;;4201476;28;20522;-75
2022/12/11 06:00:47;;;;;;;16.83;8.03;;;-2.00;99.90;;;;;;4193282;28;20984;-74
2022/12/11 06:02:50;;;;;;;15.13;7.77;;;-2.10;99.90;;;;;;4196298;28;20935;-75
2022/12/11 06:04:52;;;;;;;14.43;7.87;;;-2.10;99.90;;;;;;4201210;28;20444;-74
2022/12/11 06:06:54;;;;;;;15.03;6.90;;;-2.10;99.90;;;;;;4194650;28;20485;-76
2022/12/11 06:08:58;;;;;;;13.63;6.90;;;-2.10;99.90;;;;;;4195911;28;20479;-74
2022/12/11 06:11:02;;;;;;;14.53;7.60;;;-2.10;99.90;;;;;;4200821;28;20836;-74
2022/12/11 06:13:04;;;;;;;14.17;6.73;;;-2.10;99.90;;;;;;4186846;28;20449;-74
2022/12/11 06:15:07;;;;;;;13.27;6.50;;;-2.00;99.90;;;;;;4194623;28;20478;-74
2022/12/11 06:17:10;;;;;;;15.10;7.13;;;-2.10;99.90;;;;;;4188137;28;20576;-74
2022/12/11 06:19:16;;;;;;;15.20;6.97;;;-2.10;99.90;;;;;;4193321;28;20289;-74
2022/12/11 06:21:21;;;;;;;15.93;6.63;;;-2.10;99.90;;;;;;4186049;28;20436;-74
2022/12/11 06:23:23;;;;;;;12.07;6.37;;;-2.10;99.90;;;;;;4195437;28;20474;-76
2022/12/11 06:25:25;;;;;;;13.33;6.60;;;-2.10;99.90;;;;;;4198615;28;20920;-74
2022/12/11 06:27:30;;;;;;;12.90;6.20;;;-2.10;99.90;;;;;;4203964;28;20524;-74
2022/12/11 06:29:32;;;;;;;12.87;6.80;;;-2.10;99.90;;;;;;4201909;28;20482;-74
2022/12/11 06:31:34;;;;;;;12.93;6.07;;;-2.10;99.90;;;;;;4194394;28;21042;-75
2022/12/11 06:33:36;;;;;;;13.53;6.27;;;-1.60;99.90;;;;;;4189052;28;20480;-74
2022/12/11 06:35:39;;;;;;;15.27;6.67;;;-2.10;99.90;;;;;;4195542;28;20472;-74
2022/12/11 06:37:41;;;;;;;14.67;6.93;;;-2.10;99.90;;;;;;4201954;28;20550;-74
2022/12/11 06:39:43;;;;;;;13.03;6.33;;;-2.10;99.90;;;;;;4204008;28;20444;-74
2022/12/11 06:41:45;;;;;;;14.27;7.13;;;-2.10;99.90;;;;;;4192712;28;20484;-74
2022/12/11 06:43:47;;;;;;;11.93;6.03;;;-2.10;99.90;;;;;;4202089;28;20530;-74
2022/12/11 06:45:49;;;;;;;16.30;6.90;;;-2.10;99.90;;;;;;4187345;28;20503;-75
2022/12/11 06:47:51;;;;;;;14.00;6.33;;;-2.10;99.90;;;;;;4195035;28;20496;-75
2022/12/11 06:49:53;;;;;;;14.05;6.80;;;-2.10;99.90;;;;;;4188668;28;20456;-74
2022/12/11 06:51:57;;;;;;;14.40;6.53;;;-2.10;99.90;;;;;;4187766;28;20343;-75
2022/12/11 06:53:59;;;;;;;12.77;5.73;;;-2.10;99.90;;;;;;4187363;28;20540;-74
2022/12/11 06:56:03;;;;;;;14.63;6.43;;;-2.20;99.90;;;;;;4195128;28;21215;-74
2022/12/11 06:58:05;;;;;;;19.10;7.33;;;-2.20;99.90;;;;;;4193768;28;20449;-74
2022/12/11 07:00:08;;;;;;;14.00;6.20;;;-2.10;99.90;;;;;;4193442;28;20444;-74
2022/12/11 07:02:13;;;;;;;13.83;6.43;;;-2.20;99.90;;;;;;4191816;28;20491;-75
2022/12/11 07:04:15;;;;;;;17.07;7.00;;;-2.20;99.90;;;;;;4193796;28;20455;-74
2022/12/11 07:06:17;;;;;;;14.47;6.57;;;-2.20;99.90;;;;;;4190716;28;20511;-74
2022/12/11 07:08:20;;;;;;;13.50;6.23;;;-2.20;99.90;;;;;;4194860;28;20484;-74
2022/12/11 07:10:22;;;;;;;14.03;6.97;;;-2.20;99.90;;;;;;4201601;28;20482;-74
2022/12/11 07:12:24;;;;;;;13.40;5.97;;;-2.20;99.90;;;;;;4187966;28;20981;-74
2022/12/11 07:14:26;;;;;;;12.10;5.90;;;-2.20;99.90;;;;;;4203702;28;20452;-74
2022/12/11 07:16:28;;;;;;;17.47;6.53;;;-2.20;99.90;;;;;;4185675;28;20488;-74
2022/12/11 07:18:31;;;;;;;13.73;6.00;;;-2.10;99.90;;;;;;4194956;28;20989;-75
2022/12/11 07:20:33;;;;;;;13.57;6.67;;;-2.20;99.90;;;;;;4184651;28;20447;-74
2022/12/11 07:22:35;;;;;;;13.33;5.93;;;-2.20;99.90;;;;;;4194551;28;20475;-74
2022/12/11 07:24:38;;;;;;;13.93;6.30;;;-2.10;99.90;;;;;;4194281;28;20451;-75
2022/12/11 07:26:40;;;;;;;14.83;6.37;;;-2.20;99.90;;;;;;4196363;28;20487;-75
2022/12/11 07:28:43;;;;;;;13.03;5.67;;;-2.20;99.90;;;;;;4199941;28;20531;-74
2022/12/11 07:30:45;;;;;;;12.07;5.80;;;-2.10;99.90;;;;;;4197397;28;20596;-75
2022/12/11 07:32:47;;;;;;;15.53;6.40;;;-2.10;99.90;;;;;;4203473;28;20961;-74
2022/12/11 07:34:49;;;;;;;12.70;6.25;;;-2.10;99.90;;;;;;4196694;28;20755;-75
2022/12/11 07:36:50;;;;;;;16.17;6.63;;;-2.10;99.90;;;;;;4199936;28;20225;-74
2022/12/11 07:38:53;;;;;;;15.20;7.20;;;-2.10;99.90;;;;;;4196906;28;20552;-74
2022/12/11 07:40:56;;;;;;;13.13;5.67;;;-2.10;99.90;;;;;;4196178;28;20455;-74
2022/12/11 07:42:58;;;;;;;13.90;5.93;;;-2.10;99.90;;;;;;4196203;28;20956;-74
2022/12/11 07:45:00;;;;;;;13.23;5.80;;;-2.10;99.90;;;;;;4195723;28;20484;-74
2022/12/11 07:47:02;;;;;;;12.73;5.57;;;-2.10;99.90;;;;;;4197780;28;20449;-75
2022/12/11 07:49:05;;;;;;;15.40;6.60;;;-2.10;99.90;;;;;;4197254;28;20480;-74
2022/12/11 07:51:09;;;;;;;16.20;6.93;;;-1.80;99.90;;;;;;4195871;28;20456;-75
2022/12/11 07:53:11;;;;;;;15.20;6.83;;;-2.10;99.90;;;;;;4190413;28;20892;-74
2022/12/11 07:55:12;;;;;;;17.60;7.10;;;-2.10;99.90;;;;;;4194657;28;20827;-74
2022/12/11 07:57:16;;;;;;;14.47;6.50;;;-2.10;99.90;;;;;;4192326;28;20526;-74
2022/12/11 07:59:18;;;;;;;16.93;7.33;;;-2.10;99.90;;;;;;4192399;28;21088;-74
2022/12/11 08:01:22;;;;;;;16.30;6.67;;;-2.10;99.90;;;;;;4193658;28;20965;-74
2022/12/11 08:03:24;;;;;;;17.60;7.50;;;-2.10;99.90;;;;;;4188879;28;20436;-74
2022/12/11 08:05:26;;;;;;;17.77;7.27;;;-2.10;99.90;;;;;;4195569;28;21055;-74
2022/12/11 08:07:28;;;;;;;19.00;7.72;;;-2.10;99.90;;;;;;4187334;28;20445;-74
2022/12/11 08:09:30;;;;;;;19.63;8.47;;;-2.10;99.90;;;;;;4183566;28;20715;-74
2022/12/11 08:11:33;;;;;;;20.33;8.40;;;-2.10;99.90;;;;;;4194450;28;20467;-74
2022/12/11 08:13:36;;;;;;;18.50;7.53;;;-2.10;99.90;;;;;;4196618;28;20463;-74
2022/12/11 08:15:38;;;;;;;15.57;7.73;;;-2.10;99.90;;;;;;4187280;28;20484;-74
2022/12/11 08:17:40;;;;;;;16.87;7.37;;;-2.10;99.90;;;;;;4192341;28;20488;-74
2022/12/11 08:19:42;;;;;;;18.83;8.43;;;-2.10;99.90;;;;;;4186480;28;20456;-74
2022/12/11 08:21:44;;;;;;;16.87;7.63;;;-2.10;99.90;;;;;;4199706;28;20462;-75
2022/12/11 08:23:46;;;;;;;16.77;7.63;;;-2.10;99.90;;;;;;4194236;28;20452;-74
2022/12/11 08:25:48;;;;;;;20.37;8.10;;;-2.10;99.90;;;;;;4190906;28;20629;-74
2022/12/11 08:27:50;;;;;;;17.07;8.60;;;-2.10;99.90;;;;;;4192830;28;20479;-74
2022/12/11 08:29:53;;;;;;;16.57;7.83;;;-2.10;99.90;;;;;;4191458;28;20448;-74
2022/12/11 08:31:55;;;;;;;19.73;8.57;;;-2.10;99.90;;;;;;4187283;28;20942;-74
2022/12/11 08:33:58;;;;;;;17.23;8.10;;;-1.80;99.90;;;;;;4193950;28;20444;-74
2022/12/11 08:36:03;;;;;;;15.97;7.43;;;-2.00;99.90;;;;;;4191206;28;20475;-74
2022/12/11 08:38:05;;;;;;;16.57;7.30;;;-2.00;99.90;;;;;;4192827;28;20563;-75
2022/12/11 08:40:09;;;;;;;16.70;7.37;;;-2.00;99.90;;;;;;4197419;28;20964;-74
2022/12/11 08:42:11;;;;;;;14.97;7.40;;;-1.90;99.90;;;;;;4186316;28;20450;-74
2022/12/11 08:44:13;;;;;;;20.10;8.07;;;-1.80;99.90;;;;;;4188850;28;20502;-74
2022/12/11 08:46:17;;;;;;;16.10;7.17;;;-1.80;99.90;;;;;;4189808;28;20464;-73
2022/12/11 08:48:21;;;;;;;16.47;7.30;;;-1.90;99.90;;;;;;4193116;28;20447;-74
2022/12/11 08:50:24;;;;;;;14.70;6.70;;;-1.90;99.90;;;;;;4187215;28;20479;-74
2022/12/11 08:52:26;;;;;;;15.77;7.33;;;-1.80;99.90;;;;;;4199825;28;20470;-73
2022/12/11 08:54:28;;;;;;;16.13;6.73;;;-1.80;99.90;;;;;;4187284;28;20452;-73
2022/12/11 08:56:31;;;;;;;13.40;6.23;;;-1.70;99.90;;;;;;4195616;28;20476;-75
2022/12/11 08:58:36;;;;;;;14.70;6.90;;;-1.70;99.90;;;;;;4187899;28;20484;-74
2022/12/11 09:00:38;;;;;;;13.67;5.97;;;-1.80;99.90;;;;;;4194219;28;20460;-74
2022/12/11 09:02:42;;;;;;;15.00;6.97;;;-1.80;99.90;;;;;;4185877;28;20468;-74
2022/12/11 09:04:43;;;;;;;16.67;7.43;;;-1.70;99.90;;;;;;4188806;28;20479;-75
2022/12/11 09:06:45;;;;;;;15.77;6.57;;;-1.70;99.90;;;;;;4188264;28;20448;-75
2022/12/11 09:08:49;;;;;;;17.70;7.20;;;-1.70;99.90;;;;;;4191560;28;20453;-74
2022/12/11 09:10:51;;;;;;;15.40;6.87;;;-1.70;99.90;;;;;;4192352;28;20502;-74
2022/12/11 09:12:53;;;;;;;18.37;7.63;;;-1.70;99.90;;;;;;4193853;28;20452;-76
2022/12/11 09:14:55;;;;;;;16.63;7.27;;;-1.70;99.90;;;;;;4189094;28;20483;-74
2022/12/11 09:16:57;;;;;;;16.07;6.87;;;-1.50;99.90;;;;;;4192201;28;20464;-73
2022/12/11 09:19:01;;;;;;;16.73;7.37;;;-1.70;99.90;;;;;;4196361;28;20472;-74
2022/12/11 09:21:04;;;;;;;15.90;6.73;;;-1.50;99.90;;;;;;4198713;28;21035;-74
2022/12/11 09:23:06;;;;;;;16.37;7.27;;;-1.60;99.90;;;;;;4198826;28;21241;-74
2022/12/11 09:25:09;;;;;;;19.70;7.50;;;-1.60;99.90;;;;;;4199142;28;20476;-74
2022/12/11 09:27:11;;;;;;;16.00;7.20;;;-1.60;99.90;;;;;;4189905;28;20483;-74
2022/12/11 09:29:13;;;;;;;15.53;6.77;;;-1.60;99.90;;;;;;4197799;28;21009;-74
2022/12/11 09:31:17;;;;;;;14.37;6.53;;;-1.60;99.90;;;;;;4192698;28;21026;-74
2022/12/11 09:33:19;;;;;;;17.27;8.10;;;-1.60;99.90;;;;;;4196426;28;20460;-74
2022/12/11 09:35:23;;;;;;;15.03;6.90;;;-1.60;99.90;;;;;;4192818;28;21055;-74
2022/12/11 09:37:25;;;;;;;14.23;6.63;;;-1.40;99.90;;;;;;4196099;28;20471;-75
2022/12/11 09:39:27;;;;;;;15.00;6.40;;;-1.50;99.90;;;;;;4195634;28;20531;-75
2022/12/11 09:41:40;;;;;;;12.90;6.23;;;-1.50;99.90;;;;;;4196503;28;20551;-74
2022/12/11 09:43:46;;;;;;;16.23;7.13;;;-1.50;99.90;;;;;;4196961;28;20464;-74
2022/12/11 09:45:49;;;;;;;17.27;6.80;;;-1.40;99.90;;;;;;4204574;28;20558;-74
2022/12/11 09:47:54;;;;;;;12.27;6.10;;;-1.40;99.90;;;;;;4195212;28;20883;-73
2022/12/11 09:50:04;;;;;;;15.70;6.93;;;-1.40;99.90;;;;;;4193311;28;20485;-74
2022/12/11 09:52:13;;;;;;;14.10;6.63;;;-1.30;99.90;;;;;;4198196;28;20459;-73
2022/12/11 09:54:15;;;;;;;16.93;7.40;;;-1.30;99.90;;;;;;4186408;28;20561;-74
2022/12/11 09:56:22;;;;;;;17.87;7.57;;;-1.30;99.90;;;;;;4195726;28;20499;-74
2022/12/11 09:58:33;;;;;;;23.17;9.00;;;-1.30;99.90;;;;;;4196375;28;20480;-73
2022/12/11 10:00:40;;;;;;;16.93;7.83;;;-1.30;99.90;;;;;;4193962;28;20936;-73
2022/12/11 10:03:07;;;;;;;22.07;9.27;;;-1.20;99.90;;;;;;4193713;28;20460;-73
2022/12/11 10:05:17;;;;;;;30.27;10.97;;;-1.20;99.90;;;;;;4201639;28;20504;-75
2022/12/11 10:07:30;;;;;;;18.60;8.07;;;-1.20;99.90;;;;;;4198040;28;20441;-75
2022/12/11 10:09:39;;;;;;;17.87;7.70;;;-1.20;99.90;;;;;;4195205;28;20451;-74
2022/12/11 10:11:54;;;;;;;16.40;7.10;;;-1.20;99.90;;;;;;4192737;28;20460;-74
2022/12/11 10:14:06;;;;;;;17.03;7.33;;;-1.10;99.90;;;;;;4187564;28;20512;-75
2022/12/11 10:16:18;;;;;;;17.97;7.20;;;-1.10;99.90;;;;;;4193048;28;20463;-74
2022/12/11 10:18:23;;;;;;;15.70;6.80;;;-1.10;99.90;;;;;;4192830;28;20890;-74
2022/12/11 10:20:30;;;;;;;18.10;7.37;;;-1.00;99.90;;;;;;4197000;28;20775;-74
2022/12/11 10:22:34;;;;;;;19.50;7.83;;;-1.00;99.90;;;;;;4188595;28;20503;-75
2022/12/11 10:24:42;;;;;;;15.23;7.20;;;-1.10;99.90;;;;;;4188334;28;20464;-74
2022/12/11 10:26:45;;;;;;;19.33;8.17;;;-1.10;99.90;;;;;;4197948;28;20613;-74
2022/12/11 10:28:49;;;;;;;22.90;9.37;;;-1.00;99.90;;;;;;4196877;28;20505;-74
2022/12/11 10:30:59;;;;;;;21.00;9.20;;;-1.10;99.90;;;;;;4197247;28;20465;-74
2022/12/11 10:33:14;;;;;;;20.03;9.47;;;-1.10;99.90;;;;;;4191115;28;21009;-74
2022/12/11 10:35:24;;;;;;;19.13;7.33;;;-1.10;99.90;;;;;;4209194;28;20479;-75
2022/12/11 10:37:26;;;;;;;17.13;7.57;;;-1.10;99.90;;;;;;4195417;28;20865;-75
2022/12/11 10:39:30;;;;;;;18.43;8.37;;;-1.10;99.90;;;;;;4190889;28;20912;-75
2022/12/11 10:41:37;;;;;;;16.00;7.60;;;-1.10;99.90;;;;;;4192348;28;20492;-74
2022/12/11 10:43:42;;;;;;;15.87;8.10;;;-1.10;99.90;;;;;;4194831;28;20533;-74
2022/12/11 10:45:51;;;;;;;17.03;7.60;;;-1.10;99.90;;;;;;4187272;28;20487;-74